Time;durP1;ratioP1;P1;durP2;ratioP2;P2;SDS_P1;SDS_P2;PMS_P1;PMS_P2;Temp;Humidity;BMP_temperature;BMP_pressure;BME280_temperature;BME280_humidity;BME280_pressure;Samples;Min_cycle;Max_cycle;Signal;HPM_P1;HPM_P2
2023/01/01 00:02:06;;;;;;;5.30;0.80;;;10.50;99.90;;;;;;5030136;28;20581;-57
2023/01/01 00:04:33;;;;;;;6.43;1.00;;;10.40;99.90;;;;;;5030084;28;20216;-57
2023/01/01 00:06:59;;;;;;;8.60;0.90;;;10.40;99.90;;;;;;5029896;28;20304;-58
2023/01/01 00:12:09;;;;;;;5.67;1.20;;;10.30;99.90;;;;;;5022329;28;20224;-59
2023/01/01 00:14:35;;;;;;;7.13;1.30;;;10.90;99.90;;;;;;5030351;28;20637;-58
2023/01/01 00:17:00;;;;;;;6.37;1.57;;;10.30;99.90;;;;;;5014720;28;20174;-57
2023/01/01 00:19:26;;;;;;;13.90;2.10;;;10.20;99.90;;;;;;5010689;28;20182;-57
2023/01/01 00:21:52;;;;;;;7.80;1.90;;;10.60;99.90;;;;;;5028188;28;20180;-58
2023/01/01 00:24:18;;;;;;;8.70;1.43;;;10.30;99.90;;;;;;5029921;28;20186;-57
2023/01/01 00:26:44;;;;;;;8.10;1.50;;;10.30;99.90;;;;;;5014261;28;20712;-58
2023/01/01 00:29:09;;;;;;;5.77;1.30;;;10.40;99.90;;;;;;5010571;28;20530;-57
2023/01/01 00:31:35;;;;;;;4.20;0.60;;;10.30;99.90;;;;;;5010745;28;20645;-57
2023/01/01 00:34:00;;;;;;;10.07;1.67;;;10.30;99.90;;;;;;5025453;28;20616;-57
2023/01/01 00:36:27;;;;;;;6.33;1.30;;;10.20;99.90;;;;;;5031979;28;20201;-57
2023/01/01 00:38:53;;;;;;;8.70;1.07;;;10.20;99.90;;;;;;5033664;28;20178;-58
2023/01/01 00:41:19;;;;;;;7.03;1.53;;;10.20;99.90;;;;;;5033675;28;20656;-57
2023/01/01 00:43:44;;;;;;;7.20;1.30;;;8.10;99.90;;;;;;5033637;28;20664;-58
2023/01/01 00:46:11;;;;;;;10.57;1.40;;;10.00;99.90;;;;;;5033408;28;20202;-58
2023/01/01 00:48:36;;;;;;;5.50;0.97;;;10.10;99.90;;;;;;5033553;28;20249;-58
2023/01/01 00:51:03;;;;;;;11.50;1.50;;;10.10;99.90;;;;;;5033457;28;20231;-58
2023/01/01 00:53:29;;;;;;;9.37;1.53;;;;;;;;;;5033383;28;20488;-58
2023/01/01 00:55:55;;;;;;;13.67;2.00;;;10.10;99.90;;;;;;5033431;28;20182;-58
2023/01/01 00:58:22;;;;;;;9.27;1.73;;;10.10;99.90;;;;;;5033372;28;20184;-56
2023/01/01 01:00:49;;;;;;;15.93;1.53;;;10.10;99.90;;;;;;5031218;28;20240;-56
2023/01/01 01:03:27;;;;;;;13.10;2.13;;;10.10;99.90;;;;;;5029238;28;20240;-56
2023/01/01 01:05:56;;;;;;;9.87;2.17;;;10.20;99.90;;;;;;5026091;28;20568;-57
2023/01/01 01:08:22;;;;;;;14.60;1.83;;;;;;;;;;5032638;28;20197;-57
2023/01/01 01:10:48;;;;;;;9.90;1.50;;;;;;;;;;5033161;28;20205;-57
2023/01/01 01:13:14;;;;;;;9.80;1.63;;;10.40;99.90;;;;;;5033111;28;20264;-57
2023/01/01 01:15:39;;;;;;;17.53;2.10;;;10.30;99.90;;;;;;5032907;28;20750;-57
2023/01/01 01:18:05;;;;;;;23.83;6.47;;;;;;;;;;5033046;28;20585;-57
2023/01/01 01:20:31;;;;;;;17.73;3.03;;;;;;;;;;5032793;28;20173;-57
2023/01/01 01:22:57;;;;;;;13.47;2.30;;;10.20;99.90;;;;;;5033009;28;20224;-57
2023/01/01 01:25:22;;;;;;;18.37;2.57;;;10.20;99.90;;;;;;5032265;28;20214;-57
2023/01/01 01:27:48;;;;;;;19.77;2.53;;;10.30;99.90;;;;;;5033004;28;20624;-57
2023/01/01 01:30:14;;;;;;;11.10;1.87;;;10.20;99.90;;;;;;5032951;28;20172;-57
2023/01/01 01:32:39;;;;;;;13.50;1.60;;;10.20;99.90;;;;;;5032465;28;20645;-57
2023/01/01 01:35:06;;;;;;;17.80;2.17;;;10.20;99.90;;;;;;5032637;28;20203;-57
2023/01/01 01:37:31;;;;;;;14.47;2.30;;;10.30;99.90;;;;;;5032622;28;20616;-57
2023/01/01 01:39:57;;;;;;;14.87;2.37;;;10.30;99.90;;;;;;5032677;28;20224;-57
2023/01/01 01:42:22;;;;;;;17.63;1.37;;;10.30;99.90;;;;;;5032612;28;20189;-57
2023/01/01 01:44:50;;;;;;;15.63;2.30;;;10.20;99.90;;;;;;5032361;28;20636;-56
2023/01/01 01:47:56;;;;;;;16.57;2.00;;;10.30;99.90;;;;;;5031188;28;20270;-57
2023/01/01 01:50:22;;;;;;;20.93;2.70;;;;;;;;;;5012083;28;20189;-57
2023/01/01 01:52:57;;;;;;;16.43;2.83;;;10.30;99.90;;;;;;5032304;28;20178;-57
2023/01/01 01:55:26;;;;;;;15.17;2.63;;;10.30;99.90;;;;;;5032285;28;20196;-57
2023/01/01 01:57:52;;;;;;;16.53;2.30;;;9.90;99.90;;;;;;5032198;28;20166;-56
2023/01/01 02:00:18;;;;;;;19.30;2.60;;;10.20;99.90;;;;;;5030691;28;20558;-57
2023/01/01 02:02:56;;;;;;;17.17;2.17;;;10.10;99.90;;;;;;5026104;28;20715;-57
2023/01/01 02:05:22;;;;;;;17.60;3.13;;;10.30;99.90;;;;;;5032056;28;20297;-57
2023/01/01 02:07:50;;;;;;;12.03;2.27;;;10.30;99.90;;;;;;5031420;28;20185;-57
2023/01/01 02:10:15;;;;;;;9.53;1.53;;;10.30;99.90;;;;;;5031924;28;20260;-56
2023/01/01 02:12:41;;;;;;;19.70;3.70;;;10.30;99.90;;;;;;5031976;28;20209;-57
2023/01/01 02:15:08;;;;;;;19.33;2.80;;;10.30;99.90;;;;;;5031748;28;20181;-57
2023/01/01 02:17:43;;;;;;;13.93;2.83;;;10.20;99.90;;;;;;5031970;28;20182;-57
2023/01/01 02:20:38;;;;;;;15.47;2.67;;;10.30;99.90;;;;;;5031740;28;20181;-58
2023/01/01 02:23:36;;;;;;;20.53;2.90;;;10.20;99.90;;;;;;5031886;28;20166;-58
2023/01/01 02:26:02;;;;;;;19.00;3.23;;;;;;;;;;5009036;28;20224;-58
2023/01/01 02:29:03;;;;;;;18.80;2.47;;;10.20;99.90;;;;;;5031811;28;20574;-58
2023/01/01 02:31:36;;;;;;;31.30;3.23;;;9.90;99.90;;;;;;5031455;28;20663;-58
2023/01/01 02:34:08;;;;;;;19.27;2.77;;;10.10;99.90;;;;;;5031763;28;20265;-57
2023/01/01 02:36:37;;;;;;;18.30;2.47;;;10.00;99.90;;;;;;5031649;28;20174;-57
2023/01/01 02:39:06;;;;;;;16.27;2.73;;;10.00;99.90;;;;;;5031176;28;20664;-58
2023/01/01 02:41:44;;;;;;;20.00;2.53;;;10.10;99.90;;;;;;5031638;28;20656;-57
2023/01/01 02:44:11;;;;;;;18.53;2.80;;;9.90;99.90;;;;;;5031111;28;20165;-55
2023/01/01 02:46:36;;;;;;;18.60;2.43;;;9.90;99.90;;;;;;5031454;28;20209;-57
2023/01/01 02:49:03;;;;;;;9.83;1.93;;;10.00;99.90;;;;;;5031548;28;20177;-58
2023/01/01 02:51:49;;;;;;;14.73;2.60;;;9.80;99.90;;;;;;5031416;28;20196;-56
2023/01/01 02:54:18;;;;;;;11.87;2.27;;;9.80;99.90;;;;;;5030636;28;20178;-56
2023/01/01 02:57:15;;;;;;;18.77;2.80;;;9.90;99.90;;;;;;5023737;28;20186;-57
2023/01/01 03:03:08;;;;;;;17.87;2.20;;;9.80;99.90;;;;;;5030303;28;20247;-57
2023/01/01 03:06:21;;;;;;;23.03;2.27;;;9.80;99.90;;;;;;5029004;28;20210;-57
2023/01/01 03:08:30;;;;;;;21.97;2.67;;;9.80;99.90;;;;;;5024761;28;20202;-57
2023/01/01 03:11:14;;;;;;;15.03;2.30;;;9.80;99.90;;;;;;5030938;28;20178;-57
2023/01/01 03:13:57;;;;;;;23.27;2.97;;;9.80;99.90;;;;;;5031081;28;20219;-57
2023/01/01 03:16:46;;;;;;;27.67;3.00;;;9.70;99.90;;;;;;5011540;28;20182;-57
2023/01/01 03:19:30;;;;;;;19.20;2.80;;;9.70;99.90;;;;;;5011243;28;20170;-57
2023/01/01 03:22:02;;;;;;;27.57;2.93;;;9.70;99.90;;;;;;5010096;28;20182;-57
2023/01/01 03:24:46;;;;;;;12.73;2.53;;;9.70;99.90;;;;;;5030686;28;20178;-57
2023/01/01 03:27:30;;;;;;;22.17;2.60;;;9.80;99.90;;;;;;5031412;28;20223;-57
2023/01/01 03:30:00;;;;;;;24.47;2.93;;;9.80;99.90;;;;;;5030909;28;20349;-57
2023/01/01 03:35:19;;;;;;;22.77;2.53;;;9.80;99.90;;;;;;5030600;28;20671;-58
2023/01/01 03:37:49;;;;;;;16.67;2.57;;;9.80;99.90;;;;;;5030729;28;20209;-58
2023/01/01 03:40:17;;;;;;;31.80;3.37;;;9.80;99.90;;;;;;5030277;28;20181;-58
2023/01/01 03:42:50;;;;;;;25.67;3.23;;;9.80;99.90;;;;;;5030592;28;20169;-57
2023/01/01 03:45:20;;;;;;;22.10;2.60;;;9.80;99.90;;;;;;5030424;28;20289;-57
2023/01/01 03:47:46;;;;;;;14.93;1.90;;;9.80;99.90;;;;;;5030712;28;20189;-58
2023/01/01 03:50:13;;;;;;;16.40;2.50;;;9.80;99.90;;;;;;5029979;28;20174;-57
2023/01/01 03:53:07;;;;;;;54.67;2.83;;;9.70;99.90;;;;;;5023859;28;20680;-57
2023/01/01 03:55:45;;;;;;;19.40;3.07;;;9.80;99.90;;;;;;5030733;28;20705;-58
2023/01/01 03:58:19;;;;;;;19.40;2.53;;;9.80;99.90;;;;;;5029709;28;20216;-58
2023/01/01 04:00:52;;;;;;;18.10;2.57;;;9.80;99.90;;;;;;5030616;28;20181;-58
2023/01/01 04:03:26;;;;;;;14.97;2.37;;;9.80;99.90;;;;;;5030701;28;20214;-58
2023/01/01 04:05:52;;;;;;;21.27;3.10;;;9.70;99.90;;;;;;5030581;28;20202;-58
2023/01/01 04:08:17;;;;;;;26.13;3.00;;;9.80;99.90;;;;;;5030282;28;20257;-58
2023/01/01 04:10:56;;;;;;;18.60;3.07;;;9.80;99.90;;;;;;5029813;28;20186;-58
2023/01/01 04:13:22;;;;;;;18.10;3.30;;;9.80;99.90;;;;;;5034310;28;20186;-58
2023/01/01 04:15:48;;;;;;;12.17;2.47;;;9.70;99.90;;;;;;5034402;28;20170;-58
2023/01/01 04:18:14;;;;;;;14.83;1.93;;;9.70;99.90;;;;;;5034242;28;20213;-58
2023/01/01 04:20:39;;;;;;;19.93;2.40;;;9.70;99.90;;;;;;5033873;28;20274;-58
2023/01/01 04:23:05;;;;;;;16.40;2.17;;;9.50;99.90;;;;;;5034132;28;20621;-58
2023/01/01 04:25:31;;;;;;;15.83;1.70;;;9.70;99.90;;;;;;5033967;28;20205;-58
2023/01/01 04:27:57;;;;;;;19.23;2.60;;;9.70;99.90;;;;;;5034030;28;20174;-57
2023/01/01 04:30:23;;;;;;;18.53;2.27;;;9.70;99.90;;;;;;5033848;28;20173;-57
2023/01/01 04:32:48;;;;;;;21.30;2.33;;;9.60;99.90;;;;;;5033615;28;20185;-58
2023/01/01 04:35:14;;;;;;;18.23;2.43;;;9.60;99.90;;;;;;5033678;28;20186;-58
2023/01/01 04:37:41;;;;;;;14.77;2.30;;;9.70;99.90;;;;;;5033983;28;20220;-57
2023/01/01 04:40:09;;;;;;;19.73;1.93;;;9.60;99.90;;;;;;5033843;28;20249;-57
2023/01/01 04:42:35;;;;;;;16.83;2.30;;;9.50;99.90;;;;;;5033512;28;20625;-57
2023/01/01 04:45:01;;;;;;;14.27;2.10;;;;;;;;;;5033781;28;20185;-58
2023/01/01 04:47:26;;;;;;;22.00;3.07;;;9.30;99.90;;;;;;5026019;28;20201;-57
2023/01/01 04:49:52;;;;;;;17.17;1.70;;;9.40;99.90;;;;;;5033037;28;20708;-57
2023/01/01 04:52:18;;;;;;;12.17;1.93;;;9.40;99.90;;;;;;5033067;28;20216;-57
2023/01/01 04:54:44;;;;;;;10.73;1.30;;;9.40;99.90;;;;;;5033436;28;20636;-57
2023/01/01 04:57:09;;;;;;;15.40;1.87;;;9.50;99.90;;;;;;5033388;28;20670;-57
2023/01/01 04:59:35;;;;;;;12.90;1.73;;;9.60;99.90;;;;;;5032884;28;20705;-57
2023/01/01 05:02:01;;;;;;;8.43;1.10;;;9.60;99.90;;;;;;5033432;28;20182;-57
2023/01/01 05:04:26;;;;;;;15.90;2.10;;;9.60;99.90;;;;;;5033334;28;20584;-57
2023/01/01 05:06:52;;;;;;;18.67;1.77;;;9.60;99.90;;;;;;5033346;28;20197;-58
2023/01/01 05:09:18;;;;;;;15.43;1.43;;;9.60;99.90;;;;;;5031216;28;20216;-57
2023/01/01 05:11:43;;;;;;;10.00;1.93;;;9.60;99.90;;;;;;5021835;28;20186;-58
2023/01/01 05:14:09;;;;;;;13.23;1.63;;;9.70;99.90;;;;;;5013460;28;20161;-57
2023/01/01 05:16:37;;;;;;;7.07;1.13;;;9.80;99.90;;;;;;5031009;28;20589;-58
2023/01/01 05:19:03;;;;;;;13.23;1.50;;;9.60;99.90;;;;;;5033051;28;20174;-58
2023/01/01 05:21:31;;;;;;;13.80;1.50;;;9.70;99.90;;;;;;5032288;28;20182;-58
2023/01/01 05:24:02;;;;;;;9.27;1.70;;;9.80;99.90;;;;;;5031759;28;20698;-58
2023/01/01 05:26:30;;;;;;;11.70;1.70;;;9.50;99.90;;;;;;5032962;28;20661;-58
2023/01/01 05:28:58;;;;;;;16.80;1.80;;;9.80;99.90;;;;;;5032274;28;20186;-57
2023/01/01 05:31:26;;;;;;;9.83;1.63;;;9.90;99.90;;;;;;5032932;28;20659;-57
2023/01/01 05:33:53;;;;;;;14.70;1.90;;;9.90;99.90;;;;;;5032951;28;20166;-57
2023/01/01 05:36:30;;;;;;;14.77;2.13;;;9.80;99.90;;;;;;5032626;28;20180;-57
2023/01/01 05:38:57;;;;;;;12.80;2.03;;;9.80;99.90;;;;;;5032737;28;20176;-57
2023/01/01 05:41:23;;;;;;;16.57;2.30;;;9.70;99.90;;;;;;5025015;28;20182;-57
2023/01/01 05:43:50;;;;;;;8.83;1.70;;;9.90;99.90;;;;;;5032386;28;20185;-57
2023/01/01 05:46:22;;;;;;;19.90;1.73;;;9.90;99.90;;;;;;5032313;28;20232;-57
2023/01/01 05:48:49;;;;;;;9.17;1.40;;;10.00;99.90;;;;;;5032650;28;20194;-57
2023/01/01 05:51:21;;;;;;;9.20;1.20;;;10.20;99.90;;;;;;5032131;28;20640;-59
2023/01/01 05:53:47;;;;;;;8.60;1.67;;;10.20;99.90;;;;;;5032309;28;20169;-57
2023/01/01 05:56:14;;;;;;;7.00;1.40;;;10.10;99.90;;;;;;5032397;28;20184;-57
2023/01/01 05:58:40;;;;;;;4.90;0.70;;;10.10;99.90;;;;;;5032374;28;20177;-57
2023/01/01 06:01:21;;;;;;;10.00;1.30;;;10.00;99.90;;;;;;5031006;28;20181;-57
2023/01/01 06:03:48;;;;;;;5.77;1.10;;;9.90;99.90;;;;;;5032143;28;20630;-57
2023/01/01 06:06:17;;;;;;;15.43;1.07;;;9.50;99.90;;;;;;5032159;28;20210;-57
2023/01/01 06:08:55;;;;;;;13.20;1.37;;;9.70;99.90;;;;;;5032125;28;20173;-57
2023/01/01 06:11:21;;;;;;;12.50;1.43;;;9.50;99.90;;;;;;5032165;28;20177;-57
2023/01/01 06:13:47;;;;;;;9.63;1.03;;;9.50;99.90;;;;;;5028661;28;20213;-57
2023/01/01 06:16:12;;;;;;;13.13;1.97;;;9.50;99.90;;;;;;5012226;28;20178;-57
2023/01/01 06:18:38;;;;;;;17.73;2.23;;;9.50;99.90;;;;;;5012184;28;20516;-57
2023/01/01 06:21:06;;;;;;;13.77;1.67;;;9.40;99.90;;;;;;5027210;28;20519;-57
2023/01/01 06:23:32;;;;;;;14.77;1.73;;;9.50;99.90;;;;;;5031900;28;20166;-57
2023/01/01 06:26:14;;;;;;;17.73;2.20;;;9.40;99.90;;;;;;5031953;28;20287;-57
2023/01/01 06:28:41;;;;;;;16.43;2.17;;;9.60;99.90;;;;;;5031554;28;20269;-57
2023/01/01 06:31:09;;;;;;;16.97;2.43;;;9.40;99.90;;;;;;5031675;28;20177;-57
2023/01/01 06:33:35;;;;;;;29.33;3.10;;;9.60;99.90;;;;;;5031321;28;20182;-58
2023/01/01 06:36:02;;;;;;;27.00;2.40;;;9.50;99.90;;;;;;5023814;28;20300;-58
2023/01/01 06:38:34;;;;;;;24.17;2.67;;;9.50;99.90;;;;;;5031722;28;20172;-58
2023/01/01 06:41:02;;;;;;;17.80;2.67;;;9.60;99.90;;;;;;5031594;28;20177;-58
2023/01/01 06:43:30;;;;;;;24.83;3.10;;;9.40;99.90;;;;;;5030974;28;20174;-58
2023/01/01 06:46:00;;;;;;;20.10;2.83;;;9.60;99.90;;;;;;5024509;28;20283;-58
2023/01/01 06:48:28;;;;;;;26.27;2.37;;;9.50;99.90;;;;;;5031400;28;20637;-58
2023/01/01 06:50:53;;;;;;;16.53;2.73;;;9.40;99.90;;;;;;5031201;28;20249;-58
2023/01/01 06:53:23;;;;;;;28.10;3.13;;;9.50;99.90;;;;;;5031476;28;20308;-57
2023/01/01 06:55:49;;;;;;;23.57;2.83;;;9.40;99.90;;;;;;5031327;28;20173;-57
2023/01/01 06:58:14;;;;;;;26.20;2.93;;;9.40;99.90;;;;;;5031626;28;20180;-57
2023/01/01 07:00:40;;;;;;;24.10;3.30;;;9.40;99.90;;;;;;5031370;28;20696;-57
2023/01/01 07:03:09;;;;;;;21.73;2.73;;;9.40;99.90;;;;;;5031172;28;20181;-58
2023/01/01 07:05:34;;;;;;;23.77;3.07;;;9.30;99.90;;;;;;5030604;28;20755;-57
2023/01/01 07:08:00;;;;;;;22.60;2.67;;;9.30;99.90;;;;;;5031197;28;20257;-57
2023/01/01 07:10:26;;;;;;;21.33;2.40;;;9.30;99.90;;;;;;5031178;28;20170;-57
2023/01/01 07:12:51;;;;;;;25.70;3.20;;;9.30;99.90;;;;;;5029921;28;20260;-57
2023/01/01 07:15:17;;;;;;;15.20;1.70;;;9.40;99.90;;;;;;5030902;28;20212;-58
2023/01/01 07:17:42;;;;;;;22.20;3.17;;;9.40;99.90;;;;;;5031204;28;20227;-57
2023/01/01 07:20:08;;;;;;;26.63;2.70;;;9.40;99.90;;;;;;5030403;28;20213;-58
2023/01/01 07:22:36;;;;;;;29.80;3.30;;;9.40;99.90;;;;;;5029801;28;20660;-58
2023/01/01 07:25:02;;;;;;;23.13;2.80;;;9.40;99.90;;;;;;5030552;28;20201;-58
2023/01/01 07:27:27;;;;;;;22.33;3.40;;;9.30;99.90;;;;;;5031034;28;20634;-58
2023/01/01 07:29:53;;;;;;;29.10;3.70;;;9.30;99.90;;;;;;5031003;28;20169;-58
2023/01/01 07:32:18;;;;;;;16.77;2.77;;;9.30;99.90;;;;;;5022606;28;20539;-57
2023/01/01 07:34:44;;;;;;;16.20;2.13;;;9.30;99.90;;;;;;5020278;28;20224;-57
2023/01/01 07:37:10;;;;;;;18.80;2.77;;;9.30;99.90;;;;;;5011245;28;20183;-57
2023/01/01 07:39:35;;;;;;;19.00;2.43;;;9.30;99.90;;;;;;5010774;28;20642;-57
2023/01/01 07:42:01;;;;;;;15.77;2.23;;;9.30;99.90;;;;;;5011099;28;20186;-58
2023/01/01 07:44:26;;;;;;;11.17;2.10;;;9.40;99.90;;;;;;5026280;28;20244;-57
2023/01/01 07:47:02;;;;;;;11.77;2.00;;;9.40;99.90;;;;;;5013673;28;20264;-57
2023/01/01 07:49:27;;;;;;;24.37;2.60;;;9.50;99.90;;;;;;5025644;28;20195;-57
2023/01/01 07:51:53;;;;;;;24.00;3.03;;;9.40;99.90;;;;;;5034707;28;20660;-57
2023/01/01 07:54:19;;;;;;;16.43;2.40;;;9.40;99.90;;;;;;5034667;28;20227;-57
2023/01/01 07:56:44;;;;;;;20.33;3.00;;;9.50;99.90;;;;;;5033429;28;20188;-57
2023/01/01 07:59:10;;;;;;;22.80;2.90;;;9.40;99.90;;;;;;5034486;28;20173;-58
2023/01/01 08:01:36;;;;;;;22.77;2.80;;;9.40;99.90;;;;;;5034696;28;20750;-58
2023/01/01 08:04:03;;;;;;;20.80;2.80;;;9.40;99.90;;;;;;5034310;28;20315;-58
2023/01/01 08:06:28;;;;;;;19.60;2.97;;;9.40;99.90;;;;;;5034491;28;20214;-57
2023/01/01 08:08:54;;;;;;;13.33;2.30;;;9.30;99.90;;;;;;5034080;28;20532;-58
2023/01/01 08:11:19;;;;;;;26.77;2.90;;;9.40;99.90;;;;;;5034615;28;20182;-58
2023/01/01 08:13:45;;;;;;;28.40;3.93;;;9.40;99.90;;;;;;5034032;28;20181;-57
2023/01/01 08:16:11;;;;;;;20.77;2.60;;;9.30;99.90;;;;;;5033965;28;20174;-57
2023/01/01 08:18:36;;;;;;;18.40;2.80;;;9.50;99.90;;;;;;5032770;28;20637;-57
2023/01/01 08:21:03;;;;;;;23.10;2.77;;;9.80;99.90;;;;;;5034272;28;20180;-57
2023/01/01 08:23:28;;;;;;;17.23;2.53;;;9.60;99.90;;;;;;5033323;28;20197;-58
2023/01/01 08:25:59;;;;;;;15.87;2.43;;;9.60;99.90;;;;;;5022635;28;20712;-56
2023/01/01 08:28:24;;;;;;;27.77;3.10;;;9.60;99.90;;;;;;5037095;28;20178;-56
2023/01/01 08:30:50;;;;;;;11.23;2.07;;;9.60;99.90;;;;;;5042165;28;20193;-56
2023/01/01 08:33:15;;;;;;;21.77;2.80;;;9.60;99.90;;;;;;5017975;28;20175;-56
2023/01/01 08:35:42;;;;;;;30.93;3.03;;;9.70;99.90;;;;;;5013309;28;20189;-56
2023/01/01 08:38:10;;;;;;;20.63;2.90;;;9.70;99.90;;;;;;5013935;28;20167;-56
2023/01/01 08:40:36;;;;;;;22.83;3.57;;;9.70;99.90;;;;;;5013826;28;20209;-56
2023/01/01 08:43:02;;;;;;;31.97;3.30;;;9.60;99.90;;;;;;5013953;28;20225;-56
2023/01/01 08:45:27;;;;;;;18.57;2.93;;;9.70;99.90;;;;;;5028516;28;20196;-56
2023/01/01 08:47:53;;;;;;;21.63;3.77;;;9.70;99.90;;;;;;5033388;28;20182;-57
2023/01/01 08:50:19;;;;;;;22.00;3.30;;;;;;;;;;5033034;28;20170;-59
2023/01/01 08:52:45;;;;;;;26.10;3.57;;;9.70;99.90;;;;;;5033439;28;20205;-59
2023/01/01 08:55:10;;;;;;;18.50;2.73;;;9.60;99.90;;;;;;5033380;28;20243;-58
2023/01/01 08:57:36;;;;;;;26.27;3.43;;;9.60;99.90;;;;;;5032962;28;20562;-59
2023/01/01 09:00:02;;;;;;;28.07;3.10;;;9.60;99.90;;;;;;5033434;28;20516;-59
2023/01/01 09:02:27;;;;;;;40.63;3.67;;;9.60;99.90;;;;;;5033264;28;20224;-59
2023/01/01 09:04:53;;;;;;;24.73;3.43;;;9.60;99.90;;;;;;5032656;28;20257;-59
2023/01/01 09:07:19;;;;;;;31.43;4.17;;;9.60;99.90;;;;;;5033118;28;20209;-58
2023/01/01 09:09:44;;;;;;;24.73;4.30;;;9.60;99.90;;;;;;5033191;28;20170;-58
2023/01/01 09:12:15;;;;;;;16.27;2.90;;;9.60;99.90;;;;;;5033090;28;20174;-58
2023/01/01 09:14:40;;;;;;;22.17;3.77;;;9.80;99.90;;;;;;5033179;28;20166;-59
2023/01/01 09:17:06;;;;;;;23.53;3.37;;;9.90;99.90;;;;;;5032807;28;20231;-58
2023/01/01 09:19:31;;;;;;;17.30;2.67;;;10.10;99.90;;;;;;5032567;28;20266;-59
2023/01/01 09:21:57;;;;;;;20.43;2.93;;;10.30;99.90;;;;;;5031621;28;20706;-59
2023/01/01 09:24:23;;;;;;;30.53;3.57;;;10.30;99.90;;;;;;5030465;28;20754;-59
2023/01/01 09:26:49;;;;;;;23.40;3.37;;;10.40;99.90;;;;;;5027358;28;20267;-59
2023/01/01 09:29:19;;;;;;;20.50;3.33;;;10.40;99.90;;;;;;5032764;28;20256;-59
2023/01/01 09:31:45;;;;;;;34.77;4.27;;;10.40;99.90;;;;;;5032182;28;20316;-59
2023/01/01 09:34:11;;;;;;;31.87;3.90;;;10.40;99.90;;;;;;5032543;28;20193;-59
2023/01/01 09:36:37;;;;;;;28.43;3.63;;;10.30;99.90;;;;;;5033051;28;20178;-58
2023/01/01 09:39:03;;;;;;;18.00;3.00;;;10.50;99.90;;;;;;5032646;28;20180;-57
2023/01/01 09:41:43;;;;;;;31.13;3.80;;;10.60;99.90;;;;;;5032574;28;20385;-58
2023/01/01 09:44:25;;;;;;;17.43;1.63;;;10.80;99.90;;;;;;5032659;28;20256;-59
2023/01/01 09:46:52;;;;;;;32.83;4.30;;;10.80;99.90;;;;;;5032397;28;20230;-58
2023/01/01 09:49:34;;;;;;;16.63;2.63;;;11.10;99.90;;;;;;5030159;28;20221;-56
2023/01/01 09:52:04;;;;;;;25.37;3.20;;;11.10;99.90;;;;;;5022126;28;20194;-56
2023/01/01 09:54:38;;;;;;;24.00;3.53;;;11.00;99.90;;;;;;5032338;28;20541;-55
2023/01/01 09:57:10;;;;;;;26.83;3.30;;;12.50;99.90;;;;;;5032306;28;20185;-56
2023/01/01 09:59:36;;;;;;;27.57;4.67;;;11.10;99.90;;;;;;5032387;28;20173;-55
2023/01/01 10:02:16;;;;;;;33.13;3.60;;;11.10;99.90;;;;;;5031170;28;20193;-56
2023/01/01 10:04:47;;;;;;;27.40;3.23;;;11.10;99.90;;;;;;5032071;28;20221;-56
2023/01/01 10:07:44;;;;;;;27.77;3.10;;;11.10;99.90;;;;;;5022506;28;20222;-56
2023/01/01 10:10:35;;;;;;;30.30;3.47;;;11.20;99.90;;;;;;4990588;28;20182;-56
2023/01/01 10:13:15;;;;;;;23.27;3.17;;;11.30;99.90;;;;;;5012393;28;20189;-55
2023/01/01 10:15:51;;;;;;;34.17;3.93;;;11.20;99.90;;;;;;5009954;28;20811;-55
2023/01/01 10:18:22;;;;;;;24.40;2.10;;;11.20;99.90;;;;;;5007212;28;20421;-56
2023/01/01 10:21:04;;;;;;;25.10;3.20;;;11.20;99.90;;;;;;5022127;28;20636;-55
2023/01/01 10:23:49;;;;;;;17.77;2.30;;;11.20;99.90;;;;;;5014156;28;20211;-55
2023/01/01 10:26:20;;;;;;;19.07;3.77;;;11.20;99.90;;;;;;5018663;28;20251;-56
2023/01/01 10:29:21;;;;;;;26.00;3.17;;;11.20;99.90;;;;;;5031665;28;20177;-55
2023/01/01 10:31:47;;;;;;;18.07;2.73;;;11.30;99.90;;;;;;5030887;28;20284;-55
2023/01/01 10:34:27;;;;;;;27.17;3.83;;;11.30;99.90;;;;;;5030834;28;20580;-57
2023/01/01 10:36:56;;;;;;;21.10;2.10;;;11.40;99.90;;;;;;5031285;28;20178;-56
2023/01/01 10:39:22;;;;;;;28.83;3.87;;;;;;;;;;5028487;28;20205;-58
2023/01/01 10:41:49;;;;;;;14.07;2.53;;;11.90;99.90;;;;;;5030930;28;20297;-58
2023/01/01 10:44:27;;;;;;;29.17;4.47;;;11.70;99.90;;;;;;5031702;28;20247;-58
2023/01/01 10:46:56;;;;;;;25.30;3.27;;;12.00;99.90;;;;;;5011663;28;20209;-57
2023/01/01 10:49:22;;;;;;;27.63;3.83;;;12.00;99.90;;;;;;5029866;28;20311;-58
2023/01/01 10:51:49;;;;;;;23.47;3.40;;;12.20;99.90;;;;;;5031350;28;20265;-58
2023/01/01 10:54:24;;;;;;;24.83;3.67;;;12.40;99.90;;;;;;5030751;28;20181;-58
2023/01/01 10:56:50;;;;;;;17.60;2.17;;;12.40;99.90;;;;;;5031240;28;20172;-58
2023/01/01 10:59:34;;;;;;;29.93;3.63;;;12.30;99.90;;;;;;5031098;28;20265;-57
2023/01/01 11:02:15;;;;;;;19.77;3.10;;;12.30;99.90;;;;;;5031153;28;20181;-57
2023/01/01 11:04:40;;;;;;;26.00;4.30;;;12.20;99.90;;;;;;5028259;28;20227;-58
2023/01/01 11:07:07;;;;;;;11.77;2.70;;;12.10;99.90;;;;;;5030776;28;20316;-57
2023/01/01 11:09:38;;;;;;;25.73;3.57;;;12.20;99.90;;;;;;5030978;28;20625;-57
2023/01/01 11:12:07;;;;;;;29.13;3.67;;;12.10;99.90;;;;;;5028459;28;20193;-57
2023/01/01 11:14:39;;;;;;;23.10;3.30;;;12.20;99.90;;;;;;5022259;28;20235;-58
2023/01/01 11:17:05;;;;;;;25.00;2.83;;;12.20;99.90;;;;;;5025617;28;20606;-57
2023/01/01 11:19:40;;;;;;;25.63;3.50;;;12.10;99.90;;;;;;5030957;28;20186;-57
2023/01/01 11:22:06;;;;;;;29.47;4.17;;;12.20;99.90;;;;;;5030984;28;20219;-57
2023/01/01 11:24:33;;;;;;;30.33;4.53;;;12.20;99.90;;;;;;5030912;28;20652;-57
2023/01/01 11:27:24;;;;;;;31.63;3.83;;;12.30;99.90;;;;;;5030824;28;20747;-57
2023/01/01 11:29:53;;;;;;;26.50;4.03;;;12.40;99.90;;;;;;5030660;28;20219;-57
2023/01/01 11:32:22;;;;;;;24.07;3.40;;;12.30;99.90;;;;;;5030741;28;20196;-57
2023/01/01 11:35:05;;;;;;;34.67;4.33;;;12.10;99.90;;;;;;5030893;28;20174;-57
2023/01/01 11:37:37;;;;;;;25.67;3.77;;;12.10;99.90;;;;;;5030810;28;20261;-57
2023/01/01 11:40:13;;;;;;;25.90;3.50;;;12.10;99.90;;;;;;5030621;28;20234;-57
2023/01/01 11:43:03;;;;;;;30.33;3.07;;;12.20;99.90;;;;;;5030690;28;20344;-57
2023/01/01 11:45:37;;;;;;;27.47;3.80;;;12.30;99.90;;;;;;5030532;28;20675;-57
2023/01/01 11:48:35;;;;;;;29.80;4.70;;;12.00;99.90;;;;;;5030155;28;20192;-57
2023/01/01 11:51:03;;;;;;;36.77;5.40;;;12.10;99.90;;;;;;5021600;28;20190;-57
2023/01/01 11:53:40;;;;;;;22.50;3.33;;;12.00;99.90;;;;;;5030355;28;20181;-56
2023/01/01 11:56:17;;;;;;;27.30;3.70;;;12.00;99.90;;;;;;5030667;28;20206;-57
2023/01/01 11:59:12;;;;;;;33.23;3.30;;;12.00;99.90;;;;;;5030668;28;20192;-57
2023/01/01 12:01:48;;;;;;;14.57;2.93;;;12.00;99.90;;;;;;5026490;28;20178;-57
2023/01/01 12:04:48;;;;;;;21.60;3.07;;;12.00;99.90;;;;;;5030349;28;20225;-57
2023/01/01 12:07:23;;;;;;;32.77;5.07;;;11.90;99.90;;;;;;5025606;28;20206;-57
2023/01/01 12:10:01;;;;;;;30.70;3.80;;;11.70;99.90;;;;;;5029055;28;20229;-57
2023/01/01 12:12:42;;;;;;;39.70;4.70;;;11.80;99.90;;;;;;5028895;28;20204;-57
2023/01/01 12:15:38;;;;;;;26.23;4.30;;;11.80;99.90;;;;;;5021394;28;20181;-57
2023/01/01 12:18:30;;;;;;;32.17;4.20;;;11.80;99.90;;;;;;5028296;28;20189;-58
2023/01/01 12:21:22;;;;;;;23.90;3.63;;;11.90;99.90;;;;;;5030376;28;20244;-56
2023/01/01 12:23:48;;;;;;;22.83;3.27;;;11.90;99.90;;;;;;5030138;28;20182;-57
2023/01/01 12:26:26;;;;;;;24.17;3.50;;;11.80;99.90;;;;;;5030351;28;20194;-57
2023/01/01 12:29:01;;;;;;;30.33;4.43;;;11.80;99.90;;;;;;5029536;28;20643;-57
2023/01/01 12:31:56;;;;;;;30.90;4.80;;;11.80;99.90;;;;;;5028910;28;20310;-57
2023/01/01 12:34:31;;;;;;;25.43;3.73;;;11.80;99.90;;;;;;5033376;28;20192;-57
2023/01/01 12:37:14;;;;;;;30.13;3.93;;;11.80;99.90;;;;;;5028798;28;20177;-57
2023/01/01 12:40:16;;;;;;;30.00;3.83;;;11.70;99.90;;;;;;5030998;28;20216;-58
2023/01/01 12:42:54;;;;;;;31.33;4.13;;;11.80;99.90;;;;;;5029713;28;20227;-58
2023/01/01 12:45:51;;;;;;;21.87;3.80;;;11.70;99.90;;;;;;5030018;28;20276;-56
2023/01/01 12:48:46;;;;;;;29.23;3.73;;;11.70;99.90;;;;;;5031656;28;20184;-57
2023/01/01 12:51:49;;;;;;;14.80;2.83;;;11.70;99.90;;;;;;5031346;28;20174;-58
2023/01/01 12:54:28;;;;;;;19.00;2.87;;;11.90;99.90;;;;;;5032032;28;20174;-58
2023/01/01 12:57:12;;;;;;;21.93;3.60;;;11.70;99.90;;;;;;5033514;28;20628;-57
2023/01/01 12:59:42;;;;;;;31.40;3.87;;;11.50;99.90;;;;;;5033357;28;20170;-57
2023/01/01 13:02:19;;;;;;;25.40;3.63;;;11.70;99.90;;;;;;5033463;28;20185;-58
2023/01/01 13:04:48;;;;;;;27.07;3.67;;;12.10;99.90;;;;;;5029905;28;20225;-58
2023/01/01 13:07:14;;;;;;;25.00;3.80;;;11.70;99.90;;;;;;5028748;28;20625;-58
2023/01/01 13:09:44;;;;;;;36.17;4.37;;;11.70;99.90;;;;;;5033123;28;20201;-58
2023/01/01 13:12:24;;;;;;;25.40;3.70;;;11.60;99.90;;;;;;5033369;28;20188;-58
2023/01/01 13:14:50;;;;;;;26.00;3.67;;;11.60;99.90;;;;;;5033240;28;20170;-58